Terminal Aerodrome Forecast
Issued by NWS Sioux Falls, SD

Home | Current Version | Previous Version | Text Only | Print | Product List | Glossary On
Versions: 1 2 3 4 5 6 7 8 9 10 11 12 13 14 15 16 17 18
000
FTUS43 KFSD 260104 AAA
TAFHON
TAF AMD
KHON 260104Z 2601/2624 36015KT 3SM -SN BR SCT007 OVC019
      TEMPO 2601/2602 1SM -SN BR BKN007
     FM260700 35012KT 3SM -SN OVC012
      TEMPO 2607/2611 1SM -SN OVC007
     FM261200 36010KT 5SM -SN OVC012
     FM261600 34012KT P6SM OVC015=

USA.gov is the U.S. government's official web portal to all federal, state and local government web resources and services.